Time;durP1;ratioP1;P1;durP2;ratioP2;P2;SDS_P1;SDS_P2;PMS_P1;PMS_P2;Temp;Humidity;BMP_temperature;BMP_pressure;BME280_temperature;BME280_humidity;BME280_pressure;Samples;Min_cycle;Max_cycle;Signal;HPM_P1;HPM_P2
2022/10/14 00:00:54;;;;;;;10.80;9.90;;;;;;;20.85;44.63;95406.91;6116429;28;103158;-67
2022/10/14 00:03:58;;;;;;;10.67;9.77;;;;;;;20.85;44.20;95406.91;6116699;28;102885;-69
2022/10/14 00:07:01;;;;;;;10.27;9.47;;;;;;;20.86;44.34;95399.72;6105788;28;103324;-70
2022/10/14 00:10:06;;;;;;;11.07;10.17;;;;;;;20.85;44.44;95398.94;6114958;28;102801;-68
2022/10/14 00:13:09;;;;;;;11.30;10.30;;;;;;;20.84;44.46;95389.38;6115803;28;103624;-69
2022/10/14 00:16:18;;;;;;;10.73;9.83;;;;;;;20.85;44.59;95388.28;6116240;28;103200;-68
2022/10/14 00:19:21;;;;;;;10.53;9.73;;;;;;;20.85;44.53;95385.63;6105589;28;103065;-69
2022/10/14 00:22:24;;;;;;;9.50;8.70;;;;;;;20.84;44.38;95384.06;6120442;28;105020;-69
2022/10/14 00:25:31;;;;;;;9.83;9.10;;;;;;;20.82;44.24;95380.84;6119240;28;106126;-69
2022/10/14 00:28:35;;;;;;;9.77;8.63;;;;;;;20.85;44.30;95382.19;6108656;28;106930;-70
2022/10/14 00:31:38;;;;;;;9.47;8.57;;;;;;;20.84;44.58;95386.72;6101517;28;103984;-68
2022/10/14 00:34:41;;;;;;;9.43;8.53;;;;;;;20.83;44.20;95381.66;6114858;28;103314;-69
2022/10/14 00:37:44;;;;;;;10.17;9.37;;;;;;;20.84;44.67;95381.38;6120946;28;103213;-67
2022/10/14 00:40:49;;;;;;;9.57;8.80;;;;;;;20.83;44.25;95376.34;6111113;28;104248;-70
2022/10/14 00:44:01;;;;;;;9.40;8.60;;;;;;;20.84;44.60;95377.94;6123773;28;103019;-70
2022/10/14 00:47:04;;;;;;;9.60;8.90;;;;;;;20.85;44.35;95379.50;6115724;28;104253;-69
2022/10/14 00:50:08;;;;;;;8.53;7.80;;;;;;;20.83;44.73;95387.75;6114463;28;103152;-69
2022/10/14 00:53:14;;;;;;;8.23;7.50;;;;;;;20.83;44.37;95379.78;6092919;28;103501;-69
2022/10/14 00:56:23;;;;;;;8.50;7.70;;;;;;;20.82;44.75;95370.22;6114390;28;103707;-69
2022/10/14 00:59:26;;;;;;;8.63;7.80;;;;;;;20.83;44.44;95371.81;6117034;28;103162;-70
2022/10/14 01:02:30;;;;;;;9.03;8.23;;;;;;;20.83;44.57;95363.03;6115158;28;106025;-68
2022/10/14 01:05:52;;;;;;;8.80;8.03;;;;;;;20.81;44.48;95358.00;6110095;28;103927;-69
2022/10/14 01:09:01;;;;;;;8.30;7.60;;;;;;;20.83;44.37;95360.38;6113375;28;103512;-70
2022/10/14 01:12:14;;;;;;;8.17;7.50;;;;;;;20.82;44.44;95356.91;6130750;28;103420;-69
2022/10/14 01:15:38;;;;;;;7.90;7.30;;;;;;;20.81;44.80;95350.03;6103356;28;103141;-69
2022/10/14 01:18:57;;;;;;;8.03;7.33;;;;;;;20.80;44.58;95345.00;6116936;28;103593;-69
2022/10/14 01:22:07;;;;;;;8.43;7.73;;;;;;;20.81;44.66;95346.56;6113128;28;102974;-69
2022/10/14 01:25:19;;;;;;;8.13;7.53;;;;;;;20.81;44.45;95336.72;6113889;28;103203;-69
2022/10/14 01:28:33;;;;;;;8.97;8.20;;;;;;;20.81;44.75;95334.06;6103977;28;103197;-63
2022/10/14 01:31:44;;;;;;;9.10;8.30;;;;;;;20.80;44.38;95334.34;6113514;28;103800;-64
2022/10/14 01:34:53;;;;;;;10.63;9.13;;;;;;;20.81;44.66;95333.28;6114641;28;102973;-69
2022/10/14 01:38:01;;;;;;;9.10;8.40;;;;;;;20.80;44.45;95334.34;6096384;28;104257;-68
2022/10/14 01:41:09;;;;;;;9.07;8.37;;;;;;;20.79;44.65;95325.59;6112858;28;103172;-70
2022/10/14 01:44:14;;;;;;;9.00;8.30;;;;;;;20.80;44.45;95329.03;6113680;28;105872;-69
2022/10/14 01:47:21;;;;;;;9.10;8.40;;;;;;;20.79;44.81;95328.25;6113170;28;103306;-69
2022/10/14 01:50:27;;;;;;;9.77;8.97;;;;;;;20.79;44.49;95322.94;6097197;28;103436;-69
2022/10/14 01:53:36;;;;;;;9.43;8.63;;;;;;;20.80;44.55;95313.09;6112399;28;102693;-69
2022/10/14 01:56:42;;;;;;;9.63;8.83;;;;;;;20.80;44.57;95315.75;6113295;28;103245;-69
2022/10/14 01:59:46;;;;;;;9.30;8.60;;;;;;;20.79;44.72;95317.63;6102547;28;103244;-68
2022/10/14 02:02:51;;;;;;;9.83;9.03;;;;;;;20.78;44.60;95321.34;6102628;28;105347;-70
2022/10/14 02:06:00;;;;;;;9.97;9.17;;;;;;;20.78;44.79;95316.03;6113598;28;103558;-70
2022/10/14 02:09:14;;;;;;;9.47;8.70;;;;;;;20.78;44.82;95316.03;6113116;28;103210;-70
2022/10/14 02:12:28;;;;;;;9.40;8.63;;;;;;;20.78;44.63;95326.66;6102992;28;102964;-69
2022/10/14 02:15:38;;;;;;;9.00;8.30;;;;;;;20.78;44.45;95326.66;6112056;28;104242;-69
2022/10/14 02:18:50;;;;;;;9.50;8.80;;;;;;;20.77;44.56;95311.78;6113125;28;104881;-69
2022/10/14 02:21:59;;;;;;;5.70;5.17;;;;;;;20.75;44.39;95308.63;6112724;28;102862;-69
2022/10/14 02:25:09;;;;;;;6.43;5.90;;;;;;;20.70;44.52;95322.03;6102029;28;104071;-69
2022/10/14 02:28:18;;;;;;;6.97;6.27;;;;;;;20.70;44.59;95313.25;6112674;28;103207;-69
2022/10/14 02:31:22;;;;;;;6.47;5.97;;;;;;;20.70;44.64;95322.03;6112383;28;103050;-69
2022/10/14 02:34:27;;;;;;;6.57;6.07;;;;;;;20.67;44.60;95309.31;6110151;28;103136;-69
2022/10/14 02:37:33;;;;;;;6.80;6.20;;;;;;;20.67;44.67;95317.28;6091463;28;103189;-69
2022/10/14 02:40:41;;;;;;;6.80;6.20;;;;;;;20.64;44.54;95307.22;6124707;28;103229;-69
2022/10/14 02:43:46;;;;;;;7.27;6.73;;;;;;;20.63;44.64;95310.94;6111853;28;103227;-69
2022/10/14 02:46:49;;;;;;;6.60;6.10;;;;;;;20.65;44.59;95302.69;6100547;28;103812;-68
2022/10/14 02:49:54;;;;;;;6.70;6.20;;;;;;;20.65;44.60;95311.44;6122970;28;103331;-66
2022/10/14 02:52:57;;;;;;;6.27;5.77;;;;;;;20.64;44.58;95307.22;6118263;28;103103;-66
2022/10/14 02:56:00;;;;;;;6.33;5.77;;;;;;;20.63;44.88;95310.94;6114307;28;103293;-65
2022/10/14 02:59:03;;;;;;;5.70;5.30;;;;;;;20.61;44.75;95300.59;6101953;28;102928;-66
2022/10/14 03:02:07;;;;;;;5.40;5.00;;;;;;;20.61;44.91;95297.16;6112042;28;103470;-65
2022/10/14 03:05:11;;;;;;;6.50;5.90;;;;;;;20.64;44.65;95283.28;6118944;28;102864;-65
2022/10/14 03:08:15;;;;;;;6.40;5.90;;;;;;;20.67;44.72;95288.03;6120553;28;103113;-66
2022/10/14 03:11:18;;;;;;;6.03;5.50;;;;;;;20.66;44.65;95294.41;6101294;28;103404;-65
2022/10/14 03:14:21;;;;;;;6.10;5.57;;;;;;;20.70;44.46;95292.78;6111697;28;104172;-65
2022/10/14 03:17:24;;;;;;;6.50;6.00;;;;;;;20.70;44.77;95298.09;6113402;28;104409;-65
2022/10/14 03:20:29;;;;;;;6.00;5.60;;;;;;;20.74;45.00;95288.44;6106831;28;105920;-65
2022/10/14 03:23:32;;;;;;;6.67;6.10;;;;;;;20.73;45.33;95292.19;6104821;28;103270;-66
2022/10/14 03:26:35;;;;;;;5.77;5.27;;;;;;;20.75;45.44;95292.69;6106622;28;103110;-65
2022/10/14 03:29:41;;;;;;;5.40;4.87;;;;;;;20.74;45.95;95288.44;6091984;28;103081;-66
2022/10/14 03:32:44;;;;;;;5.37;4.87;;;;;;;20.74;45.17;95285.78;6102343;28;103242;-66
2022/10/14 03:35:48;;;;;;;5.30;4.90;;;;;;;20.75;46.55;95290.03;6112192;28;106336;-67
2022/10/14 03:38:52;;;;;;;5.80;4.77;;;;;;;20.75;45.63;95281.25;6112830;28;103595;-67
2022/10/14 03:41:55;;;;;;;6.00;4.20;;;;;;;20.68;44.73;95286.16;6111784;28;107398;-66
2022/10/14 03:44:58;;;;;;;3.43;3.00;;;;;;;20.55;44.37;95282.38;6108534;28;103197;-66
2022/10/14 03:48:01;;;;;;;6.67;3.60;;;;;;;20.58;44.64;95287.91;6129676;28;103211;-66
2022/10/14 03:51:05;;;;;;;5.03;3.50;;;;;;;20.71;45.27;95289.03;6115535;28;105936;-66
2022/10/14 03:54:08;;;;;;;4.20;3.47;;;;;;;20.78;45.52;95286.00;6110958;28;103137;-65
2022/10/14 03:57:11;;;;;;;5.63;3.20;;;;;;;20.76;45.08;95283.63;6094129;28;104351;-68
2022/10/14 04:00:15;;;;;;;2.80;2.57;;;;;;;20.73;44.05;95284.22;6108878;28;103086;-68
2022/10/14 04:03:18;;;;;;;4.20;2.30;;;;;;;20.70;43.85;95286.66;6111406;28;103097;-66
2022/10/14 04:06:23;;;;;;;6.70;2.30;;;;;;;20.72;44.05;95277.31;6107584;28;103929;-65
2022/10/14 04:09:28;;;;;;;4.07;2.23;;;;;;;20.76;44.03;95274.84;6107474;28;103822;-65
2022/10/14 04:12:31;;;;;;;3.27;1.80;;;;;;;20.77;43.67;95273.78;6111388;28;105519;-66
2022/10/14 04:15:35;;;;;;;3.00;1.77;;;;;;;20.76;43.58;95275.66;6110263;28;103271;-66
2022/10/14 04:18:39;;;;;;;3.80;1.87;;;;;;;20.77;42.83;95277.22;6112943;28;103527;-67
2022/10/14 04:21:43;;;;;;;1.53;1.43;;;;;;;20.50;42.11;95271.78;6108797;28;103057;-69
2022/10/14 04:24:47;;;;;;;2.77;1.77;;;;;;;20.37;42.64;95272.56;6111755;28;103428;-69
2022/10/14 04:27:51;;;;;;;3.40;1.73;;;;;;;20.44;42.67;95268.44;6111230;28;102829;-69
2022/10/14 04:30:55;;;;;;;1.40;1.30;;;;;;;20.47;42.73;95267.84;6101252;28;103515;-68
2022/10/14 04:33:59;;;;;;;3.80;1.80;;;;;;;20.47;42.63;95261.75;6111540;28;102842;-69
2022/10/14 04:37:04;;;;;;;1.77;1.40;;;;;;;20.46;42.33;95260.16;6113276;28;103110;-69
2022/10/14 04:40:08;;;;;;;1.50;1.40;;;;;;;20.43;42.55;95255.44;6113581;28;103557;-69
2022/10/14 04:43:11;;;;;;;4.63;1.97;;;;;;;20.40;42.51;95256.03;6104766;28;103657;-69
2022/10/14 04:46:14;;;;;;;4.93;1.40;;;;;;;20.41;42.41;95261.06;6113240;28;103249;-69
2022/10/14 04:49:17;;;;;;;2.00;1.53;;;;;;;20.39;42.36;95259.75;6112301;28;103238;-69
2022/10/14 04:52:22;;;;;;;2.47;1.40;;;;;;;20.31;42.19;95263.84;6105531;28;103199;-69
2022/10/14 04:55:26;;;;;;;1.37;1.27;;;;;;;20.31;42.21;95254.00;6114630;28;103026;-70
2022/10/14 04:58:29;;;;;;;1.73;1.50;;;;;;;20.18;42.47;95244.09;6115188;28;103149;-69
2022/10/14 05:01:33;;;;;;;2.43;1.47;;;;;;;20.21;42.26;95245.38;6115376;28;103184;-69
2022/10/14 05:04:36;;;;;;;2.77;1.80;;;;;;;20.24;41.99;95237.66;6104058;28;103154;-69
2022/10/14 05:07:41;;;;;;;4.90;1.67;;;;;;;20.27;42.20;95245.03;6115610;28;102953;-69
2022/10/14 05:10:44;;;;;;;2.77;2.10;;;;;;;20.28;42.00;95243.97;6114685;28;102957;-69
2022/10/14 05:13:48;;;;;;;3.63;2.20;;;;;;;20.32;42.14;95246.81;6115339;28;103061;-69
2022/10/14 05:16:52;;;;;;;2.57;1.90;;;;;;;20.31;41.88;95240.72;6103575;28;103044;-69
2022/10/14 05:19:55;;;;;;;4.27;2.80;;;;;;;20.31;41.85;95243.38;6114106;28;103363;-68
2022/10/14 05:23:01;;;;;;;3.43;2.30;;;;;;;20.30;41.62;95241.78;6115030;28;103478;-69
2022/10/14 05:26:05;;;;;;;2.93;2.63;;;;;;;20.27;41.95;95239.72;6109772;28;103341;-69
2022/10/14 05:29:10;;;;;;;4.03;3.00;;;;;;;19.96;42.28;95246.50;6110271;28;103373;-70
2022/10/14 05:32:13;;;;;;;5.20;2.93;;;;;;;20.10;41.99;95246.59;6114824;28;103713;-69
2022/10/14 05:35:17;;;;;;;8.37;5.87;;;;;;;20.16;42.00;95240.13;6114215;28;103189;-69
2022/10/14 05:38:45;;;;;;;4.93;4.10;;;;;;;20.20;42.02;95252.56;6104913;28;103512;-69
2022/10/14 05:41:51;;;;;;;3.97;3.20;;;;;;;20.20;41.90;95252.56;6115199;28;103098;-69
2022/10/14 05:44:59;;;;;;;3.53;2.90;;;;;;;20.24;41.83;95258.91;6115190;28;103131;-69
2022/10/14 05:48:04;;;;;;;3.50;2.57;;;;;;;20.23;41.77;95259.97;6113441;28;103611;-69
2022/10/14 05:51:09;;;;;;;5.10;4.60;;;;;;;20.25;41.78;95257.03;6104145;28;104544;-69
2022/10/14 05:54:16;;;;;;;3.97;3.50;;;;;;;20.27;41.77;95266.28;6114877;28;103318;-68
2022/10/14 05:57:24;;;;;;;5.50;2.60;;;;;;;20.27;41.60;95268.94;6114362;28;103088;-68
2022/10/14 06:00:30;;;;;;;2.50;2.30;;;;;;;20.27;41.43;95268.94;6104777;28;103503;-68
2022/10/14 06:03:36;;;;;;;3.47;2.47;;;;;;;20.26;41.43;95278.00;6114341;28;102984;-69
2022/10/14 06:06:43;;;;;;;2.77;2.37;;;;;;;20.27;41.44;95276.13;6114805;28;103078;-69
2022/10/14 06:09:51;;;;;;;3.30;2.80;;;;;;;20.26;41.35;95278.00;6114792;28;102794;-68
2022/10/14 06:12:57;;;;;;;3.03;2.73;;;;;;;20.27;41.36;95282.25;6103587;28;103250;-69
2022/10/14 06:16:04;;;;;;;4.47;3.27;;;;;;;20.26;41.70;95282.53;6114047;28;103178;-69
2022/10/14 06:19:10;;;;;;;5.43;3.27;;;;;;;20.25;41.40;95284.41;6113970;28;103258;-69
2022/10/14 06:22:14;;;;;;;3.93;2.77;;;;;;;20.23;41.19;95280.41;6113656;28;103469;-69
2022/10/14 06:25:21;;;;;;;3.40;2.90;;;;;;;20.22;41.32;95284.16;6102926;28;102822;-69
2022/10/14 06:28:29;;;;;;;3.30;3.07;;;;;;;20.21;41.48;95280.72;6113961;28;102715;-70
2022/10/14 06:31:33;;;;;;;3.43;2.90;;;;;;;20.18;41.39;95285.81;6113901;28;102842;-69
2022/10/14 06:34:38;;;;;;;2.90;2.70;;;;;;;20.18;41.69;95286.59;6103936;28;103028;-70
2022/10/14 06:37:46;;;;;;;2.90;2.60;;;;;;;20.21;41.61;95288.69;6113646;28;103256;-69
2022/10/14 06:40:56;;;;;;;3.77;3.23;;;;;;;20.14;41.58;95290.88;6078844;28;102802;-69
2022/10/14 06:44:03;;;;;;;3.30;3.10;;;;;;;20.18;41.47;95289.25;6114445;28;103615;-68
2022/10/14 06:47:14;;;;;;;4.30;2.83;;;;;;;20.15;41.63;95291.69;6102855;28;103660;-69
2022/10/14 06:50:20;;;;;;;3.17;2.87;;;;;;;20.17;41.49;95287.69;6114156;28;103839;-69
2022/10/14 06:53:25;;;;;;;3.30;3.00;;;;;;;20.20;41.53;95288.97;6112810;28;102996;-69
2022/10/14 06:56:34;;;;;;;3.63;3.43;;;;;;;20.19;41.54;95288.19;6109765;28;103265;-68
2022/10/14 06:59:39;;;;;;;3.67;3.10;;;;;;;20.21;41.29;95290.56;6108252;28;103851;-70
2022/10/14 07:02:45;;;;;;;3.23;2.93;;;;;;;20.21;41.37;95291.34;6112424;28;103339;-69
2022/10/14 07:05:50;;;;;;;3.20;3.00;;;;;;;20.21;41.24;95290.56;6113068;28;102998;-69
2022/10/14 07:08:56;;;;;;;3.73;3.43;;;;;;;20.19;41.26;95282.88;6103014;28;103641;-68
2022/10/14 07:12:02;;;;;;;5.07;3.60;;;;;;;20.17;41.21;95281.59;6113315;28;102781;-69
2022/10/14 07:15:09;;;;;;;3.37;3.10;;;;;;;20.17;41.14;95279.72;6113983;28;105972;-69
2022/10/14 07:18:14;;;;;;;3.90;3.60;;;;;;;20.18;41.22;95289.25;6112632;28;103346;-69
2022/10/14 07:21:19;;;;;;;3.83;3.37;;;;;;;20.18;41.11;95281.28;6102643;28;104647;-69
2022/10/14 07:24:27;;;;;;;3.57;3.37;;;;;;;20.25;42.16;95280.94;6111688;28;103192;-69
2022/10/14 07:27:34;;;;;;;3.90;3.60;;;;;;;20.22;41.32;95276.19;6112635;28;103027;-68
2022/10/14 07:30:42;;;;;;;3.80;3.50;;;;;;;20.28;41.59;95273.19;6108466;28;103055;-69
2022/10/14 07:33:48;;;;;;;3.33;3.13;;;;;;;20.36;41.55;95284.25;6107214;28;105006;-69
2022/10/14 07:36:53;;;;;;;3.80;3.50;;;;;;;20.41;41.34;95282.31;6112488;28;103147;-69
2022/10/14 07:39:59;;;;;;;3.93;3.67;;;;;;;20.37;41.61;95281.31;6112542;28;103390;-69
2022/10/14 07:43:18;;;;;;;3.97;3.67;;;;;;;20.35;41.43;95278.16;6102628;28;105315;-69
2022/10/14 07:46:31;;;;;;;4.17;3.73;;;;;;;20.32;41.10;95276.84;6112610;28;103543;-69
2022/10/14 07:49:37;;;;;;;3.87;3.60;;;;;;;20.28;41.14;95280.38;6113690;28;105013;-68
2022/10/14 07:52:42;;;;;;;3.70;3.50;;;;;;;20.24;40.82;95280.16;6112909;28;103370;-69
2022/10/14 07:55:51;;;;;;;3.77;3.50;;;;;;;20.24;40.68;95280.16;6100716;28;102984;-69
2022/10/14 07:58:59;;;;;;;3.60;3.30;;;;;;;20.20;41.06;95278.34;6112385;28;103127;-69
2022/10/14 08:02:05;;;;;;;3.30;3.00;;;;;;;20.20;41.04;95283.66;6112375;28;103174;-70
2022/10/14 08:05:20;;;;;;;3.50;3.20;;;;;;;20.14;40.96;95279.47;6101442;28;102782;-68
2022/10/14 08:08:44;;;;;;;3.33;3.13;;;;;;;20.14;40.76;95274.94;6111674;28;103032;-69
2022/10/14 08:11:50;;;;;;;3.47;3.27;;;;;;;20.18;40.88;95277.84;6116678;28;102864;-69
2022/10/14 08:15:01;;;;;;;3.30;3.10;;;;;;;20.21;40.58;95272.75;6116925;28;103002;-68
2022/10/14 08:18:07;;;;;;;3.70;3.40;;;;;;;20.21;40.74;95279.94;6106007;28;103238;-69
2022/10/14 08:21:16;;;;;;;3.80;3.27;;;;;;;20.19;40.34;95277.56;6116207;28;102990;-69
2022/10/14 08:24:24;;;;;;;3.50;3.20;;;;;;;20.18;40.14;95281.28;6116603;28;103219;-69
2022/10/14 08:27:32;;;;;;;3.27;3.07;;;;;;;20.18;40.44;95278.63;6111357;28;103361;-69
2022/10/14 08:30:39;;;;;;;5.00;3.03;;;;;;;20.21;40.42;95272.75;6110451;28;103280;-69
2022/10/14 08:33:49;;;;;;;3.40;3.10;;;;;;;20.22;39.98;95268.22;6116526;28;102991;-69
2022/10/14 08:37:00;;;;;;;3.83;3.53;;;;;;;19.84;39.88;95280.69;6116084;28;103478;-69
2022/10/14 08:40:07;;;;;;;3.30;3.00;;;;;;;19.20;40.82;95269.44;6105319;28;103655;-69
2022/10/14 08:43:22;;;;;;;4.37;3.07;;;;;;;18.93;41.15;95274.47;6116204;28;103176;-69
2022/10/14 08:46:37;;;;;;;2.83;2.53;;;;;;;18.51;40.87;95281.94;6115354;28;103576;-69
2022/10/14 08:49:54;;;;;;;3.83;3.07;;;;;;;18.59;41.39;95277.16;6112815;28;105023;-68
2022/10/14 08:53:13;;;;;;;4.80;3.20;;;;;;;18.62;41.01;95281.88;6109905;28;105735;-69
2022/10/14 08:56:24;;;;;;;3.27;3.07;;;;;;;18.83;40.84;95289.41;6115504;28;103114;-69
2022/10/14 08:59:39;;;;;;;3.00;2.73;;;;;;;19.16;40.39;95283.56;6114236;28;103585;-69
2022/10/14 09:02:50;;;;;;;3.37;3.07;;;;;;;19.34;40.00;95270.34;6104881;28;103273;-69
2022/10/14 09:05:59;;;;;;;2.97;2.70;;;;;;;19.52;40.01;95276.81;6115397;28;103252;-69
2022/10/14 09:09:10;;;;;;;3.60;3.30;;;;;;;19.62;39.56;95271.38;6114906;28;103175;-69
2022/10/14 09:12:18;;;;;;;5.53;3.00;;;;;;;19.78;39.86;95277.28;6112268;28;103183;-69
2022/10/14 09:15:28;;;;;;;3.47;3.27;;;;;;;19.81;39.72;95267.97;6110850;28;105761;-69
2022/10/14 09:18:43;;;;;;;3.40;3.10;;;;;;;19.89;39.68;95272.66;6115313;28;104115;-69
2022/10/14 09:21:56;;;;;;;3.17;2.97;;;;;;;19.99;39.38;95272.50;6114265;28;103107;-69
2022/10/14 09:25:03;;;;;;;3.37;3.10;;;;;;;20.03;39.66;95269.00;6104632;28;103360;-69
2022/10/14 09:28:12;;;;;;;3.33;3.00;;;;;;;20.10;39.70;95265.97;6115103;28;103551;-68
2022/10/14 09:31:19;;;;;;;3.60;2.70;;;;;;;20.20;39.48;95265.06;6079345;28;103206;-68
2022/10/14 09:34:33;;;;;;;3.40;3.10;;;;;;;20.20;39.73;95263.19;6115085;28;102810;-68
2022/10/14 09:37:43;;;;;;;3.90;3.17;;;;;;;20.24;39.40;95258.91;6104598;28;103341;-68
2022/10/14 09:40:55;;;;;;;2.90;2.70;;;;;;;20.27;38.99;95258.31;6115564;28;104323;-69
2022/10/14 09:44:21;;;;;;;3.37;3.10;;;;;;;20.32;39.51;95260.09;6115048;28;103389;-68
2022/10/14 09:47:36;;;;;;;4.83;2.93;;;;;;;20.37;39.20;95269.91;6105090;28;105478;-69
2022/10/14 09:50:50;;;;;;;4.27;3.80;;;;;;;20.40;39.37;95258.69;6114694;28;103140;-69
2022/10/14 09:54:00;;;;;;;4.20;3.47;;;;;;;20.41;39.12;95254.94;6114528;28;103154;-68
2022/10/14 09:57:19;;;;;;;3.57;3.27;;;;;;;20.44;38.54;95267.66;6114508;28;102991;-68
2022/10/14 10:00:39;;;;;;;5.37;3.00;;;;;;;20.40;37.89;95264.00;6105543;28;103272;-69
2022/10/14 10:03:46;;;;;;;3.10;2.90;;;;;;;20.41;37.63;95261.06;6114039;28;103271;-68
2022/10/14 10:06:56;;;;;;;3.07;2.87;;;;;;;20.44;38.39;95271.09;6114034;28;103450;-68
2022/10/14 10:10:18;;;;;;;3.13;2.93;;;;;;;20.46;37.93;95265.50;6102494;28;103327;-69
2022/10/14 10:13:31;;;;;;;3.17;2.97;;;;;;;20.49;38.00;95262.25;6114376;28;103063;-69
2022/10/14 10:16:39;;;;;;;3.40;3.10;;;;;;;20.52;37.67;95267.78;6113761;28;102982;-69
2022/10/14 10:19:50;;;;;;;12.43;3.67;;;;;;;20.52;37.59;95251.84;6114175;28;103051;-68
2022/10/14 10:22:59;;;;;;;2.80;2.60;;;;;;;20.51;37.46;95258.25;6104208;28;103814;-69
2022/10/14 10:26:19;;;;;;;2.63;2.43;;;;;;;20.53;37.57;95252.63;6114517;28;103185;-69
2022/10/14 10:29:33;;;;;;;3.00;2.70;;;;;;;20.51;37.14;95244.94;6113220;28;103434;-69
2022/10/14 10:32:41;;;;;;;2.90;2.70;;;;;;;20.48;37.55;95236.75;6104027;28;104014;-69
2022/10/14 10:36:16;;;;;;;2.70;2.50;;;;;;;20.41;37.12;95234.47;6113425;28;103098;-69
2022/10/14 10:39:30;;;;;;;4.43;2.70;;;;;;;20.32;36.32;95236.97;6112686;28;103055;-70
2022/10/14 10:42:40;;;;;;;3.37;3.07;;;;;;;20.26;36.69;95219.53;6114153;28;105898;-68
2022/10/14 10:45:57;;;;;;;3.30;3.00;;;;;;;20.39;36.84;95226.00;6103929;28;105426;-68
2022/10/14 10:49:10;;;;;;;5.53;3.00;;;;;;;20.38;37.15;95226.28;6114322;28;102691;-68
2022/10/14 10:52:23;;;;;;;5.47;3.87;;;;;;;20.29;36.82;95218.16;6112885;28;103068;-69
2022/10/14 10:55:37;;;;;;;4.40;3.20;;;;;;;20.32;37.32;95223.69;6103174;28;105795;-68
2022/10/14 10:58:43;;;;;;;2.87;2.67;;;;;;;20.26;36.39;95203.59;6113102;28;103059;-69
2022/10/14 11:01:55;;;;;;;4.20;2.40;;;;;;;20.32;36.53;95213.06;6113245;28;103107;-68
2022/10/14 11:05:09;;;;;;;3.03;2.73;;;;;;;20.35;36.71;95221.56;6113419;28;103340;-69
2022/10/14 11:12:06;;;;;;;1.83;1.73;;;;;;;20.23;36.41;95201.50;6113626;28;102700;-68
2022/10/14 11:15:30;;;;;;;2.20;2.00;;;;;;;20.22;36.35;95202.56;6112876;28;103151;-69
2022/10/14 11:18:46;;;;;;;2.73;2.00;;;;;;;20.27;36.13;95205.19;6102529;28;103046;-69
2022/10/14 11:21:57;;;;;;;1.97;1.83;;;;;;;20.22;35.40;95191.94;6112652;28;103169;-68
2022/10/14 11:25:06;;;;;;;1.80;1.50;;;;;;;20.26;35.54;95187.66;6112596;28;103056;-69
2022/10/14 11:28:18;;;;;;;2.70;1.60;;;;;;;20.28;35.13;95179.41;6112256;28;103161;-68
2022/10/14 11:31:29;;;;;;;1.77;1.47;;;;;;;20.31;35.05;95179.59;6107162;28;103299;-69
2022/10/14 11:34:43;;;;;;;2.50;1.63;;;;;;;20.37;35.08;95166.25;6113619;28;102936;-70
2022/10/14 11:37:59;;;;;;;2.83;1.20;;;;;;;20.39;33.85;95178.16;6112414;28;103072;-69
2022/10/14 11:41:10;;;;;;;3.47;1.30;;;;;;;20.34;33.48;95167.63;6100623;28;103860;-69
2022/10/14 11:44:21;;;;;;;1.90;1.37;;;;;;;20.42;34.91;95160.84;6111966;28;103104;-68
2022/10/14 11:47:30;;;;;;;1.40;1.30;;;;;;;20.50;34.69;95153.00;6113572;28;103061;-69
2022/10/14 11:50:40;;;;;;;1.97;1.40;;;;;;;20.55;34.27;95152.09;6112593;28;103128;-68
2022/10/14 11:53:58;;;;;;;2.20;1.10;;;;;;;20.56;33.96;95145.72;6102843;28;103309;-69
2022/10/14 11:57:07;;;;;;;1.53;1.07;;;;;;;20.58;34.76;95144.34;6112763;28;104096;-69
2022/10/14 12:00:33;;;;;;;2.13;1.10;;;;;;;20.60;34.87;95144.03;6112326;28;103085;-69
2022/10/14 12:03:51;;;;;;;1.80;1.10;;;;;;;20.62;35.25;95145.31;6102420;28;103153;-69
2022/10/14 12:07:01;;;;;;;2.10;0.90;;;;;;;20.61;35.16;95146.41;6111707;28;103393;-70
2022/10/14 12:10:13;;;;;;;0.90;0.90;;;;;;;20.57;34.60;95134.00;6112645;28;102888;-70
2022/10/14 12:13:19;;;;;;;2.13;0.90;;;;;;;20.55;33.72;95136.94;6110508;28;103954;-70
2022/10/14 12:16:24;;;;;;;1.27;1.17;;;;;;;20.53;34.25;95133.00;6102361;28;103092;-69
2022/10/14 12:19:29;;;;;;;1.20;1.10;;;;;;;20.42;34.46;95153.66;6112154;28;103123;-69
2022/10/14 12:22:33;;;;;;;1.67;1.23;;;;;;;20.38;34.02;95146.56;6111527;28;103146;-70
2022/10/14 12:25:45;;;;;;;1.10;0.97;;;;;;;20.36;34.10;95151.38;6107164;28;103392;-69
2022/10/14 12:28:49;;;;;;;1.27;1.17;;;;;;;20.35;34.11;95147.16;6109987;28;103211;-69
2022/10/14 12:32:22;;;;;;;1.10;1.00;;;;;;;20.38;34.68;95151.88;6112369;28;104967;-69
2022/10/14 12:35:49;;;;;;;1.77;1.30;;;;;;;20.30;33.84;95162.06;6104528;28;103014;-69
2022/10/14 12:39:24;;;;;;;1.27;1.13;;;;;;;20.28;33.80;95150.16;6101444;28;103066;-70
2022/10/14 12:42:29;;;;;;;1.93;0.90;;;;;;;20.23;33.75;95156.31;6098295;28;103145;-69
2022/10/14 12:45:35;;;;;;;1.70;1.00;;;;;;;20.20;34.06;95159.56;6110903;28;103393;-70
2022/10/14 12:48:49;;;;;;;1.57;0.80;;;;;;;20.19;34.02;95149.22;6102373;28;105680;-70
2022/10/14 12:51:53;;;;;;;2.40;1.10;;;;;;;20.22;34.16;95159.28;6111000;28;103442;-70
2022/10/14 12:54:58;;;;;;;1.10;0.87;;;;;;;20.16;34.03;95152.44;6111302;28;103302;-69
2022/10/14 12:58:04;;;;;;;1.67;0.93;;;;;;;20.16;34.26;95152.44;6115099;28;102807;-69
2022/10/14 13:01:16;;;;;;;2.03;0.90;;;;;;;20.10;34.01;95157.06;6104526;28;103090;-70
2022/10/14 13:04:21;;;;;;;1.43;0.90;;;;;;;20.12;33.90;95154.91;6114836;28;103340;-70
2022/10/14 13:07:38;;;;;;;2.53;1.20;;;;;;;20.12;34.11;95160.22;6115941;28;103324;-70
2022/10/14 13:10:47;;;;;;;1.83;1.00;;;;;;;20.12;34.44;95144.28;6111168;28;102995;-70
2022/10/14 13:13:59;;;;;;;3.10;0.80;;;;;;;20.11;34.34;95147.22;6109757;28;103669;-70
2022/10/14 13:17:24;;;;;;;2.00;1.00;;;;;;;20.10;34.13;95151.75;6115383;28;104689;-70
2022/10/14 13:20:52;;;;;;;1.17;1.00;;;;;;;20.11;34.35;95144.56;6114884;28;103219;-69
2022/10/14 13:23:57;;;;;;;1.03;0.93;;;;;;;20.13;33.99;95145.06;6105264;28;103670;-70
2022/10/14 13:27:14;;;;;;;3.00;0.97;;;;;;;20.11;33.96;95142.69;6114695;28;103107;-70
2022/10/14 13:30:21;;;;;;;0.80;0.80;;;;;;;20.08;34.00;95148.59;6115006;28;103244;-69
2022/10/14 13:33:32;;;;;;;2.20;1.00;;;;;;;20.00;34.12;95142.09;6110535;28;103738;-68
2022/10/14 13:36:39;;;;;;;2.50;1.00;;;;;;;20.06;33.94;95142.78;6109415;28;103710;-69
2022/10/14 13:39:42;;;;;;;0.77;0.77;;;;;;;20.08;34.26;95148.59;6114885;28;103331;-69
2022/10/14 13:42:49;;;;;;;1.10;1.00;;;;;;;20.06;33.84;95139.34;6114456;28;105266;-69
2022/10/14 13:45:58;;;;;;;1.90;1.27;;;;;;;20.07;34.18;95152.34;6103736;28;103113;-70
2022/10/14 13:49:05;;;;;;;2.00;1.00;;;;;;;19.98;34.05;95152.19;6113713;28;103320;-69
2022/10/14 13:52:18;;;;;;;2.53;1.00;;;;;;;19.98;33.23;95148.75;6114585;28;103001;-69
2022/10/14 13:55:23;;;;;;;1.67;0.97;;;;;;;19.99;32.54;95150.31;6114350;28;103173;-69
2022/10/14 13:58:26;;;;;;;1.77;1.67;;;;;;;19.95;32.58;95142.16;6104254;28;102911;-68
2022/10/14 14:01:36;;;;;;;1.40;1.27;;;;;;;19.95;32.61;95150.13;6114333;28;103320;-69
2022/10/14 14:04:39;;;;;;;1.20;1.03;;;;;;;19.94;32.81;95142.44;6110696;28;102787;-68
2022/10/14 14:07:44;;;;;;;1.97;0.80;;;;;;;19.89;32.42;95150.50;6107922;28;103312;-69
2022/10/14 14:11:08;;;;;;;1.43;0.90;;;;;;;19.87;32.48;95155.31;6113569;28;103159;-68
2022/10/14 14:14:23;;;;;;;2.00;0.90;;;;;;;19.85;32.62;95154.81;6114327;28;103150;-69
2022/10/14 14:17:30;;;;;;;1.50;0.97;;;;;;;19.78;32.34;95147.19;6114093;28;102702;-69
2022/10/14 14:20:34;;;;;;;1.03;0.93;;;;;;;19.81;32.52;95148.47;6102653;28;104028;-69
2022/10/14 14:23:49;;;;;;;1.13;1.03;;;;;;;19.84;32.15;95142.59;6113996;28;105140;-69
2022/10/14 14:26:54;;;;;;;2.53;1.07;;;;;;;19.86;32.79;95146.56;6113179;28;103458;-70
2022/10/14 14:29:57;;;;;;;1.20;1.00;;;;;;;19.84;32.20;95147.91;6111776;28;103649;-70
2022/10/14 14:33:04;;;;;;;1.57;0.97;;;;;;;19.89;32.45;95161.13;6108482;28;104053;-69
2022/10/14 14:36:12;;;;;;;1.13;1.07;;;;;;;19.92;32.42;95157.88;6113546;28;103248;-69
2022/10/14 14:39:30;;;;;;;1.17;1.07;;;;;;;19.89;32.69;95156.59;6113405;28;103385;-69